NCAR-RAP Real-Time Weather Data

Output produced by METARs form (17 January 2018  22:28 UTC)
found at http://weather.rap.ucar.edu/surface/
 
Conditions at: KTTS observed 17 January 2018  21:58 UTC
Temperature: 17.6°C (64°F)
Dewpoint: 11.6°C (53°F) [RH = 68%]
Pressure (altimeter): 30.16 inches Hg (1021.4 mb)
[Sea-level pressure: 1021.8 mb]
Winds: from the NNE (20 degrees) at 12 MPH (10 knots; 5.2 m/s)
gusting to 18 MPH (16 knots; 8.3 m/s)
Visibility: 10 or more miles (16+ km)
Ceiling: 5500 feet AGL
Clouds: overcast cloud deck at 5500 feet AGL
Present Weather:
SOME DATA ABOVE MAY BE INACCURATE!!!
"$" is an indication the sensor requires maintenance
KTTS 172158Z AUTO 02010G16KT 10SM OVC055 18/12 A3016 RMK AO2 SLP218 T01760116 $

Conditions at: KTTS observed 17 January 2018  20:58 UTC
Temperature: 21.1°C (70°F)
Dewpoint: 9.6°C (49°F) [RH = 48%]
Pressure (altimeter): 30.14 inches Hg (1020.7 mb)
[Sea-level pressure: 1021.1 mb]
Winds: from the NW (320 degrees) at 14 MPH (12 knots; 6.2 m/s)
Visibility: 10 or more miles (16+ km)
Ceiling: at least 12,000 feet AGL
Clouds: few clouds at 6500 feet AGL
Present Weather:
SOME DATA ABOVE MAY BE INACCURATE!!!
"$" is an indication the sensor requires maintenance
KTTS 172058Z AUTO 32012KT 10SM FEW065 21/10 A3014 RMK AO2 SLP211 T02110096 56015 $

Conditions at: KTTS observed 17 January 2018  19:58 UTC
Temperature: 21.5°C (71°F)
Dewpoint: 8.3°C (47°F) [RH = 43%]
Pressure (altimeter): 30.15 inches Hg (1021.1 mb)
[Sea-level pressure: 1021.4 mb]
Winds: from the WNW (290 degrees) at 10 MPH (9 knots; 4.7 m/s)
Visibility: 10 or more miles (16+ km)
Ceiling: at least 12,000 feet AGL
Clouds: sky clear below 12,000 feet AGL
Present Weather:
SOME DATA ABOVE MAY BE INACCURATE!!!
"$" is an indication the sensor requires maintenance
KTTS 171958Z AUTO 29009KT 10SM CLR 22/08 A3015 RMK AO2 SLP214 T02150083 $

Conditions at: KTTS observed 17 January 2018  18:58 UTC
Temperature: 21.0°C (70°F)
Dewpoint: 9.0°C (48°F) [RH = 46%]
Pressure (altimeter): 30.15 inches Hg (1021.1 mb)
[Sea-level pressure: 1021.4 mb]
Winds: from the WNW (290 degrees) at 12 MPH (10 knots; 5.2 m/s)
Visibility: 10 or more miles (16+ km)
Ceiling: at least 12,000 feet AGL
Clouds: sky clear below 12,000 feet AGL
Present Weather:
SOME DATA ABOVE MAY BE INACCURATE!!!
"$" is an indication the sensor requires maintenance
KTTS 171858Z AUTO 29010KT 10SM CLR 21/09 A3015 RMK AO2 SLP214 T02100090 $

Conditions at: KTTS observed 17 January 2018  17:58 UTC
Temperature: 20.7°C (69°F)
Dewpoint: 9.3°C (49°F) [RH = 48%]
Pressure (altimeter): 30.18 inches Hg (1022.1 mb)
[Sea-level pressure: 1022.4 mb]
Winds: from the NW (320 degrees) at 9 MPH (8 knots; 4.2 m/s)
Visibility: 10 or more miles (16+ km)
Ceiling: at least 12,000 feet AGL
Clouds: sky clear below 12,000 feet AGL
Present Weather:
SOME DATA ABOVE MAY BE INACCURATE!!!
"$" is an indication the sensor requires maintenance
KTTS 171758Z AUTO 32008KT 10SM CLR 21/09 A3018 RMK AO2 SLP224 T02070093 10207 20098 58022 $

Conditions at: KTTS observed 17 January 2018  16:58 UTC
Temperature: 19.9°C (68°F)
Dewpoint: 10.4°C (51°F) [RH = 54%]
Pressure (altimeter): 30.22 inches Hg (1023.5 mb)
[Sea-level pressure: 1023.8 mb]
Winds: from the NW (320 degrees) at 9 MPH (8 knots; 4.2 m/s)
Visibility: 10 or more miles (16+ km)
Ceiling: at least 12,000 feet AGL
Clouds: sky clear below 12,000 feet AGL
Present Weather:
SOME DATA ABOVE MAY BE INACCURATE!!!
"$" is an indication the sensor requires maintenance
KTTS 171658Z AUTO 32008KT 10SM CLR 20/10 A3022 RMK AO2 SLP238 T01990104 $

Conditions at: KTTS observed 17 January 2018  15:58 UTC
Temperature: 18.7°C (66°F)
Dewpoint: 9.8°C (50°F) [RH = 56%]
Pressure (altimeter): 30.24 inches Hg (1024.1 mb)
[Sea-level pressure: 1024.5 mb]
Winds: from the NNW (330 degrees) at 7 MPH (6 knots; 3.1 m/s)
Visibility: 10 or more miles (16+ km)
Ceiling: at least 12,000 feet AGL
Clouds: sky clear below 12,000 feet AGL
Present Weather:
SOME DATA ABOVE MAY BE INACCURATE!!!
"$" is an indication the sensor requires maintenance
KTTS 171558Z AUTO 33006KT 10SM CLR 19/10 A3024 RMK AO2 SLP245 T01870098 $

Conditions at: KTTS observed 17 January 2018  14:58 UTC
Temperature: 16.5°C (62°F)
Dewpoint: 14.5°C (58°F) [RH = 88%]
Pressure (altimeter): 30.25 inches Hg (1024.5 mb)
[Sea-level pressure: 1024.8 mb]
Winds: from the NNW (340 degrees) at 7 MPH (6 knots; 3.1 m/s)
Visibility: 10 or more miles (16+ km)
Ceiling: at least 12,000 feet AGL
Clouds: sky clear below 12,000 feet AGL
Present Weather:
SOME DATA ABOVE MAY BE INACCURATE!!!
"$" is an indication the sensor requires maintenance
KTTS 171458Z AUTO 34006KT 10SM CLR 17/15 A3025 RMK AO2 SLP248 T01650145 51009 $

Conditions at: KTTS observed 17 January 2018  13:58 UTC
Temperature: 13.2°C (56°F)
Dewpoint: 13.2°C (56°F) [RH = 100%]
Pressure (altimeter): 30.25 inches Hg (1024.5 mb)
[Sea-level pressure: 1024.8 mb]
Winds: from the NNW (330 degrees) at 8 MPH (7 knots; 3.6 m/s)
Visibility: 10 or more miles (16+ km)
Ceiling: at least 12,000 feet AGL
Clouds: sky clear below 12,000 feet AGL
Present Weather:
SOME DATA ABOVE MAY BE INACCURATE!!!
"$" is an indication the sensor requires maintenance
KTTS 171358Z AUTO 33007KT 10SM CLR 13/13 A3025 RMK AO2 SLP248 T01320132 $

Conditions at: KTTS observed 17 January 2018  12:58 UTC
Temperature: 10.5°C (51°F)
Dewpoint: 10.5°C (51°F) [RH = 100%]
Pressure (altimeter): 30.24 inches Hg (1024.1 mb)
[Sea-level pressure: 1024.5 mb]
Winds: calm
Visibility: 10 or more miles (16+ km)
Ceiling: at least 12,000 feet AGL
Clouds: sky clear below 12,000 feet AGL
Present Weather:
SOME DATA ABOVE MAY BE INACCURATE!!!
"$" is an indication the sensor requires maintenance
KTTS 171258Z AUTO 00000KT 10SM CLR 11/11 A3024 RMK AO2 SLP245 T01050105 $

Conditions at: KTTS observed 17 January 2018  11:58 UTC
Temperature: 10.6°C (51°F)
Dewpoint: 10.6°C (51°F) [RH = 100%]
Pressure (altimeter): 30.22 inches Hg (1023.5 mb)
[Sea-level pressure: 1023.8 mb]
Winds: from the N (350 degrees) at 5 MPH (4 knots; 2.1 m/s)
Visibility: 10 or more miles (16+ km)
Ceiling: at least 12,000 feet AGL
Clouds: sky clear below 12,000 feet AGL
Present Weather:
SOME DATA ABOVE MAY BE INACCURATE!!!
"$" is an indication the sensor requires maintenance
KTTS 171158Z AUTO 35004KT 10SM CLR 11/11 A3022 RMK AO2 SLP238 60001 70001 T01060106 10118 20106 53006 $

Conditions at: KTTS observed 17 January 2018  10:58 UTC
Temperature: 10.9°C (52°F)
Dewpoint: 10.9°C (52°F) [RH = 100%]
Pressure (altimeter): 30.21 inches Hg (1023.1 mb)
[Sea-level pressure: 1023.4 mb]
Winds: from the N (360 degrees) at 6 MPH (5 knots; 2.6 m/s)
Visibility: 10 or more miles (16+ km)
Ceiling: at least 12,000 feet AGL
Clouds: sky clear below 12,000 feet AGL
Present Weather:
SOME DATA ABOVE MAY BE INACCURATE!!!
"$" is an indication the sensor requires maintenance
KTTS 171058Z AUTO 36005KT 10SM CLR 11/11 A3021 RMK AO2 SLP234 P0001 T01090109 $

Conditions at: KTTS observed 17 January 2018  09:58 UTC
Temperature: 10.7°C (51°F)
Dewpoint: 10.7°C (51°F) [RH = 100%]
Pressure (altimeter): 30.21 inches Hg (1023.1 mb)
[Sea-level pressure: 1023.4 mb]
Winds: from the N (360 degrees) at 5 MPH (4 knots; 2.1 m/s)
Visibility: 10 or more miles (16+ km)
Ceiling: at least 12,000 feet AGL
Clouds: sky clear below 12,000 feet AGL
Present Weather:
SOME DATA ABOVE MAY BE INACCURATE!!!
"$" is an indication the sensor requires maintenance
KTTS 170958Z AUTO 36004KT 10SM CLR 11/11 A3021 RMK AO2 SLP234 T01070107 $

Conditions at: KTTS observed 17 January 2018  08:58 UTC
Temperature: 10.9°C (52°F)
Dewpoint: 10.9°C (52°F) [RH = 100%]
Pressure (altimeter): 30.21 inches Hg (1023.1 mb)
[Sea-level pressure: 1023.4 mb]
Winds: from the N (360 degrees) at 6 MPH (5 knots; 2.6 m/s)
Visibility: 10 or more miles (16+ km)
Ceiling: at least 12,000 feet AGL
Clouds: sky clear below 12,000 feet AGL
Present Weather:
SOME DATA ABOVE MAY BE INACCURATE!!!
"$" is an indication the sensor requires maintenance
KTTS 170858Z AUTO 36005KT 10SM CLR 11/11 A3021 RMK AO2 SLP234 T01090109 57012 $

Conditions at: KTTS observed 17 January 2018  07:58 UTC
Temperature: 11.6°C (53°F)
Dewpoint: 11.6°C (53°F) [RH = 100%]
Pressure (altimeter): 30.21 inches Hg (1023.1 mb)
[Sea-level pressure: 1023.4 mb]
Winds: from the N (350 degrees) at 5 MPH (4 knots; 2.1 m/s)
Visibility: 10 or more miles (16+ km)
Ceiling: at least 12,000 feet AGL
Clouds: sky clear below 12,000 feet AGL
Present Weather:
SOME DATA ABOVE MAY BE INACCURATE!!!
"$" is an indication the sensor requires maintenance
KTTS 170758Z AUTO 35004KT 10SM CLR 12/12 A3021 RMK AO2 SLP234 T01160116 $

Conditions at: KTTS observed 17 January 2018  06:58 UTC
Temperature: 11.4°C (53°F)
Dewpoint: 11.4°C (53°F) [RH = 100%]
Pressure (altimeter): 30.23 inches Hg (1023.8 mb)
[Sea-level pressure: 1024.1 mb]
Winds: from the N (360 degrees) at 5 MPH (4 knots; 2.1 m/s)
Visibility: 10 or more miles (16+ km)
Ceiling: at least 12,000 feet AGL
Clouds: sky clear below 12,000 feet AGL
Present Weather:
SOME DATA ABOVE MAY BE INACCURATE!!!
"$" is an indication the sensor requires maintenance
KTTS 170658Z AUTO 36004KT 10SM CLR 11/11 A3023 RMK AO2 SLP241 T01140114 $

Conditions at: KTTS observed 17 January 2018  05:58 UTC
Temperature: 11.1°C (52°F)
Dewpoint: 11.1°C (52°F) [RH = 100%]
Pressure (altimeter): 30.24 inches Hg (1024.1 mb)
[Sea-level pressure: 1024.5 mb]
Winds: from the N (10 degrees) at 5 MPH (4 knots; 2.1 m/s)
Visibility: 10 or more miles (16+ km)
Ceiling: at least 12,000 feet AGL
Clouds: sky clear below 12,000 feet AGL
Present Weather:
SOME DATA ABOVE MAY BE INACCURATE!!!
"$" is an indication the sensor requires maintenance
KTTS 170558Z AUTO 01004KT 10SM CLR 11/11 A3024 RMK AO2 SLP245 T01110111 10131 20111 57015 $

Conditions at: KTTS observed 17 January 2018  04:58 UTC
Temperature: 11.5°C (53°F)
Dewpoint: 11.5°C (53°F) [RH = 100%]
Pressure (altimeter): 30.26 inches Hg (1024.8 mb)
[Sea-level pressure: 1025.1 mb]
Winds: from the N (350 degrees) at 5 MPH (4 knots; 2.1 m/s)
Visibility: 10 or more miles (16+ km)
Ceiling: at least 12,000 feet AGL
Clouds: few clouds at 6000 feet AGL
Present Weather:
SOME DATA ABOVE MAY BE INACCURATE!!!
"$" is an indication the sensor requires maintenance
KTTS 170458Z AUTO 35004KT 10SM FEW060 12/12 A3026 RMK AO2 SLP251 T01150115 402010096 $

Conditions at: KTTS observed 17 January 2018  03:58 UTC
Temperature: 11.8°C (53°F)
Dewpoint: 11.8°C (53°F) [RH = 100%]
Pressure (altimeter): 30.28 inches Hg (1025.5 mb)
[Sea-level pressure: 1025.8 mb]
Winds: from the N (350 degrees) at 6 MPH (5 knots; 2.6 m/s)
Visibility: 10 or more miles (16+ km)
Ceiling: at least 12,000 feet AGL
Clouds: sky clear below 12,000 feet AGL
Present Weather:
SOME DATA ABOVE MAY BE INACCURATE!!!
"$" is an indication the sensor requires maintenance
KTTS 170358Z AUTO 35005KT 10SM CLR 12/12 A3028 RMK AO2 SLP258 T01180118 $

Conditions at: KTTS observed 17 January 2018  02:58 UTC
Temperature: 11.8°C (53°F)
Dewpoint: 11.8°C (53°F) [RH = 100%]
Pressure (altimeter): 30.29 inches Hg (1025.8 mb)
[Sea-level pressure: 1026.2 mb]
Winds: from the N (350 degrees) at 5 MPH (4 knots; 2.1 m/s)
Visibility: 10 or more miles (16+ km)
Ceiling: at least 12,000 feet AGL
Clouds: sky clear below 12,000 feet AGL
Present Weather:
SOME DATA ABOVE MAY BE INACCURATE!!!
"$" is an indication the sensor requires maintenance
KTTS 170258Z AUTO 35004KT 10SM CLR 12/12 A3029 RMK AO2 SLP262 T01180118 50002 $

Conditions at: KTTS observed 17 January 2018  01:58 UTC
Temperature: 12.1°C (54°F)
Dewpoint: 12.1°C (54°F) [RH = 100%]
Pressure (altimeter): 30.28 inches Hg (1025.5 mb)
[Sea-level pressure: 1025.8 mb]
Winds: from the N (350 degrees) at 6 MPH (5 knots; 2.6 m/s)
Visibility: 10 or more miles (16+ km)
Ceiling: at least 12,000 feet AGL
Clouds: sky clear below 12,000 feet AGL
Present Weather:
SOME DATA ABOVE MAY BE INACCURATE!!!
"$" is an indication the sensor requires maintenance
KTTS 170158Z AUTO 35005KT 10SM CLR 12/12 A3028 RMK AO2 SLP258 T01210121 $

Conditions at: KTTS observed 17 January 2018  00:58 UTC
Temperature: 13.0°C (55°F)
Dewpoint: 13.0°C (55°F) [RH = 100%]
Pressure (altimeter): 30.29 inches Hg (1025.8 mb)
[Sea-level pressure: 1026.2 mb]
Winds: from the N (360 degrees) at 6 MPH (5 knots; 2.6 m/s)
Visibility: 10 or more miles (16+ km)
Ceiling: at least 12,000 feet AGL
Clouds: sky clear below 12,000 feet AGL
Present Weather:
SOME DATA ABOVE MAY BE INACCURATE!!!
"$" is an indication the sensor requires maintenance
KTTS 170058Z AUTO 36005KT 10SM CLR 13/13 A3029 RMK AO2 SLP262 T01300130 $

Conditions at: KTTS observed 16 January 2018  23:58 UTC
Temperature: 13.1°C (56°F)
Dewpoint: 13.1°C (56°F) [RH = 100%]
Pressure (altimeter): 30.28 inches Hg (1025.5 mb)
[Sea-level pressure: 1025.8 mb]
Winds: from the N (10 degrees) at 7 MPH (6 knots; 3.1 m/s)
Visibility: 10 or more miles (16+ km)
Ceiling: at least 12,000 feet AGL
Clouds: sky clear below 12,000 feet AGL
Present Weather:
SOME DATA ABOVE MAY BE INACCURATE!!!
"$" is an indication the sensor requires maintenance
KTTS 162358Z AUTO 01006KT 10SM CLR 13/13 A3028 RMK AO2 SLP258 T01310131 10201 20129 58001 $

Conditions at: KTTS observed 16 January 2018  22:58 UTC
Temperature: 13.2°C (56°F)
Dewpoint: 13.1°C (56°F) [RH = 99%]
Pressure (altimeter): 30.29 inches Hg (1025.8 mb)
[Sea-level pressure: 1026.2 mb]
Winds: from the N (360 degrees) at 8 MPH (7 knots; 3.6 m/s)
Visibility: 10 or more miles (16+ km)
Ceiling: at least 12,000 feet AGL
Clouds: sky clear below 12,000 feet AGL
Present Weather:
SOME DATA ABOVE MAY BE INACCURATE!!!
"$" is an indication the sensor requires maintenance
KTTS 162258Z AUTO 36007KT 10SM CLR 13/13 A3029 RMK AO2 SLP262 T01320131 $

Conditions at: KTTS observed 16 January 2018  21:58 UTC
Temperature: 14.7°C (58°F)
Dewpoint: 14.5°C (58°F) [RH = 99%]
Pressure (altimeter): 30.29 inches Hg (1025.8 mb)
[Sea-level pressure: 1026.2 mb]
Winds: from the NNE (30 degrees) at 8 MPH (7 knots; 3.6 m/s)
gusting to 16 MPH (14 knots; 7.3 m/s)
Visibility: 10 or more miles (16+ km)
Ceiling: at least 12,000 feet AGL
Clouds: sky clear below 12,000 feet AGL
Present Weather:
SOME DATA ABOVE MAY BE INACCURATE!!!
"$" is an indication the sensor requires maintenance
KTTS 162158Z AUTO 03007G14KT 10SM CLR 15/15 A3029 RMK AO2 SLP262 T01470145 $

Conditions at: KTTS observed 16 January 2018  20:58 UTC
Temperature: 16.1°C (61°F)
Dewpoint: 14.8°C (59°F) [RH = 92%]
Pressure (altimeter): 30.28 inches Hg (1025.5 mb)
[Sea-level pressure: 1025.8 mb]
Winds: from the N (360 degrees) at 9 MPH (8 knots; 4.2 m/s)
gusting to 17 MPH (15 knots; 7.8 m/s)
Visibility: 10 or more miles (16+ km)
Ceiling: at least 12,000 feet AGL
Clouds: sky clear below 12,000 feet AGL
Present Weather:
SOME DATA ABOVE MAY BE INACCURATE!!!
"$" is an indication the sensor requires maintenance
KTTS 162058Z AUTO 36008G15KT 10SM CLR 16/15 A3028 RMK AO2 SLP258 T01610148 56011 $

Conditions at: KTTS observed 16 January 2018  19:58 UTC
Temperature: 17.8°C (64°F)
Dewpoint: 15.3°C (60°F) [RH = 85%]
Pressure (altimeter): 30.29 inches Hg (1025.8 mb)
[Sea-level pressure: 1026.2 mb]
Winds: from the N (10 degrees) at 10 MPH (9 knots; 4.7 m/s)
gusting to 20 MPH (17 knots; 8.8 m/s)
Visibility: 10 or more miles (16+ km)
Ceiling: at least 12,000 feet AGL
Clouds: sky clear below 12,000 feet AGL
Present Weather:
SOME DATA ABOVE MAY BE INACCURATE!!!
"$" is an indication the sensor requires maintenance
KTTS 161958Z AUTO 01009G17KT 10SM CLR 18/15 A3029 RMK AO2 SLP262 T01780153 $

Conditions at: KTTS observed 16 January 2018  18:58 UTC
Temperature: 19.3°C (67°F)
Dewpoint: 14.4°C (58°F) [RH = 73%]
Pressure (altimeter): 30.30 inches Hg (1026.2 mb)
[Sea-level pressure: 1026.5 mb]
Winds: from the N (10 degrees) at 9 MPH (8 knots; 4.2 m/s)
Visibility: 10 or more miles (16+ km)
Ceiling: at least 12,000 feet AGL
Clouds: sky clear below 12,000 feet AGL
Present Weather:
SOME DATA ABOVE MAY BE INACCURATE!!!
"$" is an indication the sensor requires maintenance
KTTS 161858Z AUTO 01008KT 10SM CLR 19/14 A3030 RMK AO2 SLP265 T01930144 $

Conditions at: KTTS observed 16 January 2018  17:58 UTC
Temperature: 19.8°C (68°F)
Dewpoint: 14.4°C (58°F) [RH = 71%]
Pressure (altimeter): 30.32 inches Hg (1026.8 mb)
[Sea-level pressure: 1027.2 mb]
Winds: from the N (360 degrees) at 8 MPH (7 knots; 3.6 m/s)
Visibility: 10 or more miles (16+ km)
Ceiling: at least 12,000 feet AGL
Clouds: sky clear below 12,000 feet AGL
Present Weather:
SOME DATA ABOVE MAY BE INACCURATE!!!
"$" is an indication the sensor requires maintenance
KTTS 161758Z AUTO 36007KT 10SM CLR 20/14 A3032 RMK AO2 SLP272 T01980144 10200 20096 58018 $

Conditions at: KTTS observed 16 January 2018  16:58 UTC
Temperature: 19.3°C (67°F)
Dewpoint: 15.1°C (59°F) [RH = 77%]
Pressure (altimeter): 30.35 inches Hg (1027.9 mb)
[Sea-level pressure: 1028.2 mb]
Winds: from the N (10 degrees) at 7 MPH (6 knots; 3.1 m/s)
Visibility: 10 or more miles (16+ km)
Ceiling: at least 12,000 feet AGL
Clouds: sky clear below 12,000 feet AGL
Present Weather:
SOME DATA ABOVE MAY BE INACCURATE!!!
"$" is an indication the sensor requires maintenance
KTTS 161658Z AUTO 01006KT 10SM CLR 19/15 A3035 RMK AO2 SLP282 T01930151 $

Conditions at: KTTS observed 16 January 2018  15:58 UTC
Temperature: 18.3°C (65°F)
Dewpoint: 15.4°C (60°F) [RH = 83%]
Pressure (altimeter): 30.37 inches Hg (1028.5 mb)
[Sea-level pressure: 1028.9 mb]
Winds: from the N (10 degrees) at 6 MPH (5 knots; 2.6 m/s)
Visibility: 10 or more miles (16+ km)
Ceiling: at least 12,000 feet AGL
Clouds: sky clear below 12,000 feet AGL
Present Weather:
SOME DATA ABOVE MAY BE INACCURATE!!!
"$" is an indication the sensor requires maintenance
KTTS 161558Z AUTO 01005KT 10SM CLR 18/15 A3037 RMK AO2 SLP289 T01830154 $

Conditions at: KTTS observed 16 January 2018  14:58 UTC
Temperature: 16.6°C (62°F)
Dewpoint: 16.4°C (62°F) [RH = 99%]
Pressure (altimeter): 30.37 inches Hg (1028.5 mb)
[Sea-level pressure: 1028.9 mb]
Winds: from the N (10 degrees) at 6 MPH (5 knots; 2.6 m/s)
Visibility: 10 or more miles (16+ km)
Ceiling: at least 12,000 feet AGL
Clouds: sky clear below 12,000 feet AGL
Present Weather:
SOME DATA ABOVE MAY BE INACCURATE!!!
"$" is an indication the sensor requires maintenance
KTTS 161458Z AUTO 01005KT 10SM CLR 17/16 A3037 RMK AO2 SLP289 T01660164 52012 $

Conditions at: KTTS observed 16 January 2018  13:58 UTC
Temperature: 13.3°C (56°F)
Dewpoint: 13.3°C (56°F) [RH = 100%]
Pressure (altimeter): 30.36 inches Hg (1028.2 mb)
[Sea-level pressure: 1028.5 mb]
Winds: from the N (360 degrees) at 6 MPH (5 knots; 2.6 m/s)
Visibility: 10 or more miles (16+ km)
Ceiling: at least 12,000 feet AGL
Clouds: sky clear below 12,000 feet AGL
Present Weather:
SOME DATA ABOVE MAY BE INACCURATE!!!
"$" is an indication the sensor requires maintenance
KTTS 161358Z AUTO 36005KT 10SM CLR 13/13 A3036 RMK AO2 SLP285 T01330133 $

Conditions at: KTTS observed 16 January 2018  12:58 UTC
Temperature: 10.5°C (51°F)
Dewpoint: 10.4°C (51°F) [RH = 99%]
Pressure (altimeter): 30.34 inches Hg (1027.5 mb)
[Sea-level pressure: 1027.8 mb]
Winds: from the NNW (340 degrees) at 8 MPH (7 knots; 3.6 m/s)
Visibility: 10 or more miles (16+ km)
Ceiling: at least 12,000 feet AGL
Clouds: sky clear below 12,000 feet AGL
Present Weather:
SOME DATA ABOVE MAY BE INACCURATE!!!
"$" is an indication the sensor requires maintenance
KTTS 161258Z AUTO 34007KT 10SM CLR 11/10 A3034 RMK AO2 SLP278 T01050104 $

Conditions at: KTTS observed 16 January 2018  11:58 UTC
Temperature: 9.8°C (50°F)
Dewpoint: 9.8°C (50°F) [RH = 100%]
Pressure (altimeter): 30.33 inches Hg (1027.2 mb)
[Sea-level pressure: 1027.5 mb]
Winds: from the NW (320 degrees) at 5 MPH (4 knots; 2.1 m/s)
Visibility: 8 miles (13 km)
Ceiling: at least 12,000 feet AGL
Clouds: sky clear below 12,000 feet AGL
Present Weather:
SOME DATA ABOVE MAY BE INACCURATE!!!
"$" is an indication the sensor requires maintenance
KTTS 161158Z AUTO 32004KT 8SM CLR 10/10 A3033 RMK AO2 SLP275 T00980098 10136 20096 53010 $

Conditions at: KTTS observed 16 January 2018  10:58 UTC
Temperature: 10.0°C (50°F)
Dewpoint: 10.0°C (50°F) [RH = 100%]
Pressure (altimeter): 30.31 inches Hg (1026.5 mb)
[Sea-level pressure: 1026.8 mb]
Winds: calm
Visibility: 9 miles (14 km)
Ceiling: at least 12,000 feet AGL
Clouds: sky clear below 12,000 feet AGL
Present Weather:
SOME DATA ABOVE MAY BE INACCURATE!!!
"$" is an indication the sensor requires maintenance
KTTS 161058Z AUTO 00000KT 9SM CLR 10/10 A3031 RMK AO2 SLP268 T01000100 $

Conditions at: KTTS observed 16 January 2018  09:58 UTC
Temperature: 10.6°C (51°F)
Dewpoint: 10.6°C (51°F) [RH = 100%]
Pressure (altimeter): 30.30 inches Hg (1026.2 mb)
[Sea-level pressure: 1026.5 mb]
Winds: from the N (350 degrees) at 5 MPH (4 knots; 2.1 m/s)
Visibility: 10 or more miles (16+ km)
Ceiling: at least 12,000 feet AGL
Clouds: sky clear below 12,000 feet AGL
Present Weather:
SOME DATA ABOVE MAY BE INACCURATE!!!
"$" is an indication the sensor requires maintenance
KTTS 160958Z AUTO 35004KT 10SM CLR 11/11 A3030 RMK AO2 SLP265 T01060106 $

Conditions at: KTTS observed 16 January 2018  08:58 UTC
Temperature: 10.6°C (51°F)
Dewpoint: 10.6°C (51°F) [RH = 100%]
Pressure (altimeter): 30.30 inches Hg (1026.2 mb)
[Sea-level pressure: 1026.5 mb]
Winds: calm
Visibility: 10 or more miles (16+ km)
Ceiling: at least 12,000 feet AGL
Clouds: sky clear below 12,000 feet AGL
Present Weather:
SOME DATA ABOVE MAY BE INACCURATE!!!
"$" is an indication the sensor requires maintenance
KTTS 160858Z AUTO 00000KT 10SM CLR 11/11 A3030 RMK AO2 SLP265 T01060106 56006 $

Conditions at: KTTS observed 16 January 2018  07:58 UTC
Temperature: 11.8°C (53°F)
Dewpoint: 11.8°C (53°F) [RH = 100%]
Pressure (altimeter): 30.30 inches Hg (1026.2 mb)
[Sea-level pressure: 1026.5 mb]
Winds: calm
Visibility: 10 or more miles (16+ km)
Ceiling: at least 12,000 feet AGL
Clouds: sky clear below 12,000 feet AGL
Present Weather:
SOME DATA ABOVE MAY BE INACCURATE!!!
"$" is an indication the sensor requires maintenance
KTTS 160758Z AUTO 00000KT 10SM CLR 12/12 A3030 RMK AO2 SLP265 T01180118 $

Conditions at: KTTS observed 16 January 2018  06:58 UTC
Temperature: 13.3°C (56°F)
Dewpoint: 13.3°C (56°F) [RH = 100%]
Pressure (altimeter): 30.31 inches Hg (1026.5 mb)
[Sea-level pressure: 1026.8 mb]
Winds: from the N (10 degrees) at 6 MPH (5 knots; 2.6 m/s)
Visibility: 10 or more miles (16+ km)
Ceiling: at least 12,000 feet AGL
Clouds: few clouds at 4000 feet AGL
Present Weather:
SOME DATA ABOVE MAY BE INACCURATE!!!
"$" is an indication the sensor requires maintenance
KTTS 160658Z AUTO 01005KT 10SM FEW040 13/13 A3031 RMK AO2 SLP268 T01330133 $

Conditions at: KTTS observed 16 January 2018  05:58 UTC
Temperature: 13.3°C (56°F)
Dewpoint: 13.3°C (56°F) [RH = 100%]
Pressure (altimeter): 30.32 inches Hg (1026.8 mb)
[Sea-level pressure: 1027.2 mb]
Winds: from the N (10 degrees) at 5 MPH (4 knots; 2.1 m/s)
Visibility: 10 or more miles (16+ km)
Ceiling: at least 12,000 feet AGL
Clouds: sky clear below 12,000 feet AGL
Present Weather:
SOME DATA ABOVE MAY BE INACCURATE!!!
"$" is an indication the sensor requires maintenance
KTTS 160558Z AUTO 01004KT 10SM CLR 13/13 A3032 RMK AO2 SLP272 T01330133 10133 20124 57012 $

Conditions at: KTTS observed 16 January 2018  04:58 UTC
Temperature: 12.9°C (55°F)
Dewpoint: 12.9°C (55°F) [RH = 100%]
Pressure (altimeter): 30.33 inches Hg (1027.2 mb)
[Sea-level pressure: 1027.5 mb]
Winds: from the N (10 degrees) at 6 MPH (5 knots; 2.6 m/s)
Visibility: 10 or more miles (16+ km)
Ceiling: at least 12,000 feet AGL
Clouds: few clouds at 3900 feet AGL
Present Weather:
SOME DATA ABOVE MAY BE INACCURATE!!!
"$" is an indication the sensor requires maintenance
KTTS 160458Z AUTO 01005KT 10SM FEW039 13/13 A3033 RMK AO2 SLP275 T01290129 401700087 $

Conditions at: KTTS observed 16 January 2018  03:58 UTC
Temperature: 12.8°C (55°F)
Dewpoint: 12.8°C (55°F) [RH = 100%]
Pressure (altimeter): 30.34 inches Hg (1027.5 mb)
[Sea-level pressure: 1027.8 mb]
Winds: from the N (350 degrees) at 3 MPH (3 knots; 1.6 m/s)
Visibility: 10 or more miles (16+ km)
Ceiling: at least 12,000 feet AGL
Clouds: sky clear below 12,000 feet AGL
Present Weather:
SOME DATA ABOVE MAY BE INACCURATE!!!
"$" is an indication the sensor requires maintenance
KTTS 160358Z AUTO 35003KT 10SM CLR 13/13 A3034 RMK AO2 SLP278 T01280128 $

Conditions at: KTTS observed 16 January 2018  02:58 UTC
Temperature: 13.1°C (56°F)
Dewpoint: 13.1°C (56°F) [RH = 100%]
Pressure (altimeter): 30.35 inches Hg (1027.9 mb)
[Sea-level pressure: 1028.2 mb]
Winds: from the N (360 degrees) at 7 MPH (6 knots; 3.1 m/s)
Visibility: 10 or more miles (16+ km)
Ceiling: at least 12,000 feet AGL
Clouds: sky clear below 12,000 feet AGL
Present Weather:
SOME DATA ABOVE MAY BE INACCURATE!!!
"$" is an indication the sensor requires maintenance
KTTS 160258Z AUTO 36006KT 10SM CLR 13/13 A3035 RMK AO2 SLP282 T01310131 53007 $

Conditions at: KTTS observed 16 January 2018  01:58 UTC
Temperature: 12.9°C (55°F)
Dewpoint: 12.4°C (54°F) [RH = 97%]
Pressure (altimeter): 30.35 inches Hg (1027.9 mb)
[Sea-level pressure: 1028.2 mb]
Winds: from the N (360 degrees) at 8 MPH (7 knots; 3.6 m/s)
Visibility: 10 or more miles (16+ km)
Ceiling: at least 12,000 feet AGL
Clouds: sky clear below 12,000 feet AGL
Present Weather:
SOME DATA ABOVE MAY BE INACCURATE!!!
"$" is an indication the sensor requires maintenance
KTTS 160158Z AUTO 36007KT 10SM CLR 13/12 A3035 RMK AO2 SLP282 T01290124 $

Conditions at: KTTS observed 16 January 2018  00:58 UTC
Temperature: 12.8°C (55°F)
Dewpoint: 11.8°C (53°F) [RH = 94%]
Pressure (altimeter): 30.33 inches Hg (1027.2 mb)
[Sea-level pressure: 1027.5 mb]
Winds: from the N (360 degrees) at 8 MPH (7 knots; 3.6 m/s)
Visibility: 10 or more miles (16+ km)
Ceiling: at least 12,000 feet AGL
Clouds: sky clear below 12,000 feet AGL
Present Weather:
SOME DATA ABOVE MAY BE INACCURATE!!!
"$" is an indication the sensor requires maintenance
KTTS 160058Z AUTO 36007KT 10SM CLR 13/12 A3033 RMK AO2 SLP275 T01280118 $

Conditions at: KTTS observed 15 January 2018  23:58 UTC
Temperature: 12.7°C (55°F)
Dewpoint: 11.0°C (52°F) [RH = 89%]
Pressure (altimeter): 30.33 inches Hg (1027.2 mb)
[Sea-level pressure: 1027.5 mb]
Winds: from the N (10 degrees) at 9 MPH (8 knots; 4.2 m/s)
Visibility: 10 or more miles (16+ km)
Ceiling: at least 12,000 feet AGL
Clouds: sky clear below 12,000 feet AGL
Present Weather:
SOME DATA ABOVE MAY BE INACCURATE!!!
"$" is an indication the sensor requires maintenance
KTTS 152358Z AUTO 01008KT 10SM CLR 13/11 A3033 RMK AO2 SLP275 T01270110 10169 20126 52009 $

Conditions at: KTTS observed 15 January 2018  22:58 UTC
Temperature: 12.9°C (55°F)
Dewpoint: 10.6°C (51°F) [RH = 86%]
Pressure (altimeter): 30.33 inches Hg (1027.2 mb)
[Sea-level pressure: 1027.5 mb]
Winds: from the N (10 degrees) at 13 MPH (11 knots; 5.7 m/s)
gusting to 17 MPH (15 knots; 7.8 m/s)
Visibility: 10 or more miles (16+ km)
Ceiling: at least 12,000 feet AGL
Clouds: sky clear below 12,000 feet AGL
Present Weather:
SOME DATA ABOVE MAY BE INACCURATE!!!
"$" is an indication the sensor requires maintenance
KTTS 152258Z AUTO 01011G15KT 10SM CLR 13/11 A3033 RMK AO2 SLP275 T01290106 $